Aeroporto :
LOGIN :

Iscrizione | Disclaimer

   EN    FR    IT 

 










Sommario :    VFR   VFR Marginale   IFR   IFR Intensivo   IFR Molto Intensivo
Visibilità : 
Base nubi : 
>= 8 km
>= 3000ft
5 / 8 km
1000 / 3000 ft
1500m / 5 km
500 / 1000 ft
800 / 1500m
200 / 500 ft
< 800m
< 200 ft
Simboli :   Temporali  Nebbia  Neve Forte  Precipitazioni Forti  Vento > 20 kt
SIGMETs :   Varie  Temporali  Ghiacco  Turbolenza  Onda orograficha  Ceneri Vulcaniche







- Altitudine del aeroporto : 1090 ft
- Codice IATA : CFE
- Carte del aeroporto


LFLC - Clermont-Ferrand Auvergne

ULTIMO METAR :
  • 210700Z AUTO 35005KT 320V020 9999 BKN013 OVC018 03/01 Q1019 TEMPO 2000 -SN BR BKN003

METARs OBSOLETI :
  • 210630Z AUTO 36005KT 9999 FEW006 OVC015 02/01 Q1018 TEMPO 2000 -SN BR BKN003
  • 210600Z AUTO 36006KT 5000 -DZ BR BKN006 OVC011 02/01 Q1018 TEMPO 2000 -SN BR BKN003
  • 210530Z AUTO 35007KT 9999 BKN008 OVC014 03/01 Q1018 TEMPO 2000 -SN BR BKN003
  • 210500Z AUTO 36005KT 320V030 7000 -RA SCT008 OVC015 02/01 Q1018 TEMPO 2000 -SN BR BKN003
  • 210430Z AUTO 01007KT 7000 -RA SCT007 BKN014 OVC021 03/01 Q1017
  • 210400Z AUTO 35002KT 9999 SCT012 BKN018 BKN023 03/01 Q1017

TAF TAF LFLC
Valido dal 21 a 03 ore il 22 a 03 ore UTC


210200Z 2103/2203 36006KT 9999 BKN010 BKN018
PROB40
TEMPO 2103/2109 2000 -SN BR BKN003
BECMG 2116/2119 OVC015
BECMG 2200/2203 SCT012
ATIS : +33 4 73 62 74 38
Nessun NOTAM noto per questo aeroporto.



MetMap, La meteo Aeronautica in un colpo d'occhio ! - Copyright ORBIFLY Dicembre 2007 - Disclaimer

ORBIFLY MET'MAP TEAM :

Programmazione e sviluppo : Alexandra Zaïnal
Concezione e sviluppo : Baudouin d'Aumeries
Co-Programmazione e sviluppo : Marc-Olivier Méhu
Supporto tecnico e logistico : Manuel Goepfert
Aiuto per la traduzione : Arnaldo La Scala

Contatto : metmap@orbifly.com




FONTI E CREDITI :

   NOAA